Time;durP1;ratioP1;P1;durP2;ratioP2;P2;SDS_P1;SDS_P2;PMS_P1;PMS_P2;Temp;Humidity;BMP_temperature;BMP_pressure;BME280_temperature;BME280_humidity;BME280_pressure;Samples;Min_cycle;Max_cycle;Signal;HPM_P1;HPM_P2
2023/05/05 00:00:21;;;;;;;;;;;11.50;99.90;;;;;;4883272;29;20022;-75
2023/05/05 00:02:47;;;;;;;;;;;11.50;99.90;;;;;;4900238;29;19935;-72
2023/05/05 00:05:13;;;;;;;;;;;11.40;99.90;;;;;;4898840;29;19927;-73
2023/05/05 00:07:39;;;;;;;;;;;11.50;99.90;;;;;;4899125;29;20430;-73
2023/05/05 00:10:04;;;;;;;;;;;11.50;99.90;;;;;;4899724;29;19928;-74
2023/05/05 00:12:30;;;;;;;;;;;11.40;99.90;;;;;;4899892;29;20491;-75
2023/05/05 00:14:56;;;;;;;;;;;11.40;99.90;;;;;;4914373;29;20286;-69
2023/05/05 00:17:21;;;;;;;;;;;11.40;99.90;;;;;;4898387;29;19928;-74
2023/05/05 00:19:47;;;;;;;;;;;11.30;99.90;;;;;;4899904;29;19935;-73
2023/05/05 00:22:13;;;;;;;;;;;11.30;99.90;;;;;;4899288;29;19967;-74
2023/05/05 00:24:38;;;;;;;;;;;11.30;99.90;;;;;;4899525;29;19934;-73
2023/05/05 00:27:04;;;;;;;;;;;11.30;99.90;;;;;;4914021;29;20022;-75
2023/05/05 00:29:30;;;;;;;;;;;11.30;99.90;;;;;;4899211;29;19928;-74
2023/05/05 00:31:56;;;;;;;;;;;11.30;99.90;;;;;;4898763;29;19928;-74
2023/05/05 00:34:21;;;;;;;;;;;11.20;99.90;;;;;;4899368;29;20412;-74
2023/05/05 00:36:47;;;;;;;;;;;11.20;99.90;;;;;;4898426;29;20013;-74
2023/05/05 00:39:13;;;;;;;;;;;11.20;99.90;;;;;;4882211;29;19927;-73
2023/05/05 00:41:38;;;;;;;;;;;11.10;99.90;;;;;;4899396;29;20346;-74
2023/05/05 00:44:04;;;;;;;;;;;11.10;99.90;;;;;;4899029;29;19977;-73
2023/05/05 00:46:30;;;;;;;;;;;11.10;99.90;;;;;;4907360;29;19976;-73
2023/05/05 00:48:56;;;;;;;;;;;11.10;99.90;;;;;;4906726;29;20286;-75
2023/05/05 00:51:22;;;;;;;;;;;11.10;99.90;;;;;;4899130;29;19923;-73
2023/05/05 00:53:49;;;;;;;;;;;11.00;99.90;;;;;;4899285;29;19938;-74
2023/05/05 00:56:15;;;;;;;;;;;11.00;99.90;;;;;;4898468;29;20396;-72
2023/05/05 00:58:41;;;;;;;;;;;10.90;99.90;;;;;;4899062;29;19983;-74
2023/05/05 01:01:07;;;;;;;;;;;11.00;99.90;;;;;;4897672;29;19927;-73
2023/05/05 01:03:35;;;;;;;;;;;10.90;99.90;;;;;;4897917;29;19931;-73
2023/05/05 01:06:07;;;;;;;;;;;10.90;99.90;;;;;;4898967;29;19934;-73
2023/05/05 01:08:32;;;;;;;;;;;10.80;99.90;;;;;;4899095;29;19991;-73
2023/05/05 01:11:02;;;;;;;;;;;10.80;99.90;;;;;;4899151;29;20057;-74
2023/05/05 01:13:28;;;;;;;;;;;10.80;99.90;;;;;;4898891;29;19938;-73
2023/05/05 01:16:12;;;;;;;;;;;10.70;99.90;;;;;;4913658;29;19927;-73
2023/05/05 01:18:38;;;;;;;;;;;10.70;99.90;;;;;;4898860;29;19932;-75
2023/05/05 01:21:09;;;;;;;;;;;10.70;99.90;;;;;;4898794;29;20047;-73
2023/05/05 01:23:54;;;;;;;;;;;10.70;99.90;;;;;;4898668;29;20026;-73
2023/05/05 01:26:22;;;;;;;;;;;10.70;99.90;;;;;;4898105;29;19927;-73
2023/05/05 01:28:47;;;;;;;;;;;10.60;99.90;;;;;;4898678;29;19991;-72
2023/05/05 01:31:20;;;;;;;;;;;10.60;99.90;;;;;;4912835;29;19997;-75
2023/05/05 01:33:52;;;;;;;;;;;10.60;99.90;;;;;;4898723;29;19931;-73
2023/05/05 01:36:24;;;;;;;;;;;10.60;99.90;;;;;;4898446;29;20003;-74
2023/05/05 01:38:56;;;;;;;;;;;10.50;99.90;;;;;;4897510;29;20280;-74
2023/05/05 01:41:28;;;;;;;;;;;10.50;99.90;;;;;;4898012;29;19955;-74
2023/05/05 01:43:55;;;;;;;;;;;10.50;99.90;;;;;;4898529;29;20018;-75
2023/05/05 01:46:22;;;;;;;;;;;10.50;99.90;;;;;;4912423;29;20309;-75
2023/05/05 01:48:48;;;;;;;;;;;10.50;99.90;;;;;;4898260;29;19931;-72
2023/05/05 01:51:15;;;;;;;;;;;10.40;99.90;;;;;;4897632;29;19998;-74
2023/05/05 01:53:41;;;;;;;;;;;10.40;99.90;;;;;;4898007;29;19935;-75
2023/05/05 01:56:08;;;;;;;;;;;10.40;99.90;;;;;;4896949;29;19968;-74
2023/05/05 01:58:34;;;;;;;;;;;10.40;99.90;;;;;;4897596;29;19929;-74
2023/05/05 02:01:00;;;;;;;;;;;10.40;99.90;;;;;;4897844;29;19927;-73
2023/05/05 02:03:27;;;;;;;;;;;10.40;99.90;;;;;;4897595;29;20243;-73
2023/05/05 02:05:53;;;;;;;;;;;10.30;99.90;;;;;;4897816;29;19978;-73
2023/05/05 02:08:20;;;;;;;;;;;10.30;99.90;;;;;;4901591;29;19983;-74
2023/05/05 02:10:46;;;;;;;;;;;10.30;99.90;;;;;;4910617;29;20263;-72
2023/05/05 02:13:12;;;;;;;;;;;10.30;99.90;;;;;;4903042;29;19928;-73
2023/05/05 02:15:39;;;;;;;;;;;10.30;99.90;;;;;;4898793;29;19994;-74
2023/05/05 02:18:05;;;;;;;;;;;10.30;99.90;;;;;;4914507;29;19934;-75
2023/05/05 02:20:31;;;;;;;;;;;10.30;99.90;;;;;;4898981;29;20298;-74
2023/05/05 02:22:57;;;;;;;;;;;10.30;99.90;;;;;;4897598;29;19927;-74
2023/05/05 02:25:25;;;;;;;;;;;10.30;99.90;;;;;;4897609;29;20305;-75
2023/05/05 02:27:54;;;;;;;;;;;10.30;99.90;;;;;;4897632;29;20353;-75
2023/05/05 02:30:21;;;;;;;;;;;10.30;99.90;;;;;;4896036;29;20415;-73
2023/05/05 02:32:52;;;;;;;;;;;10.30;99.90;;;;;;4912428;29;19953;-74
2023/05/05 02:35:20;;;;;;;;;;;10.40;99.90;;;;;;4897561;29;20301;-68
2023/05/05 02:37:47;;;;;;;;;;;10.40;99.90;;;;;;4897495;29;20385;-76
2023/05/05 02:40:13;;;;;;;;;;;10.30;99.90;;;;;;4897646;29;19928;-73
2023/05/05 02:42:39;;;;;;;;;;;10.30;99.90;;;;;;4897801;29;20245;-75
2023/05/05 02:45:13;;;;;;;;;;;10.30;99.90;;;;;;4898229;29;19990;-74
2023/05/05 02:47:38;;;;;;;;;;;10.30;99.90;;;;;;4898168;29;19934;-74
2023/05/05 02:50:05;;;;;;;;;;;10.40;99.90;;;;;;4898256;29;20386;-75
2023/05/05 02:52:31;;;;;;;;;;;10.40;99.90;;;;;;4898857;29;19935;-74
2023/05/05 02:55:01;;;;;;;;;;;10.40;99.90;;;;;;4898105;29;20385;-74
2023/05/05 02:57:31;;;;;;;;;;;10.40;99.90;;;;;;4897269;29;19935;-74
2023/05/05 03:00:06;;;;;;;;;;;10.40;99.90;;;;;;4896458;29;19995;-74
2023/05/05 03:02:39;;;;;;;;;;;10.30;99.90;;;;;;4912089;29;19932;-74
2023/05/05 03:05:07;;;;;;;;;;;10.30;99.90;;;;;;4897911;29;19933;-75
2023/05/05 03:07:37;;;;;;;;;;;10.30;99.90;;;;;;4898252;29;19927;-73
2023/05/05 03:10:13;;;;;;;;;;;10.30;99.90;;;;;;4897535;29;19934;-72
2023/05/05 03:12:52;;;;;;;;;;;10.30;99.90;;;;;;4896735;29;19979;-74
2023/05/05 03:15:20;;;;;;;;;;;10.30;99.90;;;;;;4897997;29;19939;-75
2023/05/05 03:17:45;;;;;;;;;;;10.30;99.90;;;;;;4898097;29;19954;-73
2023/05/05 03:20:11;;;;;;;;;;;10.30;99.90;;;;;;4896648;29;20359;-73
2023/05/05 03:22:37;;;;;;;;;;;10.20;99.90;;;;;;4883903;29;20452;-73
2023/05/05 03:25:03;;;;;;;;;;;10.20;99.90;;;;;;4900595;29;19934;-73
2023/05/05 03:27:28;;;;;;;;;;;10.10;99.90;;;;;;4899905;29;19934;-69
2023/05/05 03:29:54;;;;;;;;;;;10.10;99.90;;;;;;4899966;29;19928;-73
2023/05/05 03:32:20;;;;;;;;;;;10.10;99.90;;;;;;4913283;29;19938;-72
2023/05/05 03:34:45;;;;;;;;;;;10.10;99.90;;;;;;4908115;29;20267;-73
2023/05/05 03:37:11;;;;;;;;;;;10.10;99.90;;;;;;4900017;29;20368;-75
2023/05/05 03:39:36;;;;;;;;;;;10.10;99.90;;;;;;4899448;29;19928;-73
2023/05/05 03:42:02;;;;;;;;;;;10.10;99.90;;;;;;4901160;29;19934;-75
2023/05/05 03:44:28;;;;;;;;;;;10.10;99.90;;;;;;4900714;29;20370;-72
2023/05/05 03:46:53;;;;;;;;;;;10.60;99.90;;;;;;4883349;29;20010;-72
2023/05/05 03:49:19;;;;;;;;;;;10.10;99.90;;;;;;4900249;29;19928;-74
2023/05/05 03:51:45;;;;;;;;;;;10.10;99.90;;;;;;4899494;29;19985;-73
2023/05/05 03:54:11;;;;;;;;;;;10.10;99.90;;;;;;4914662;29;19934;-73
2023/05/05 03:56:36;;;;;;;;;;;10.10;99.90;;;;;;4914525;29;19947;-75
2023/05/05 03:59:02;;;;;;;;;;;10.20;99.90;;;;;;4898671;29;20042;-73
2023/05/05 04:01:30;;;;;;;;;;;10.20;99.90;;;;;;4914650;29;19939;-75
2023/05/05 04:03:56;;;;;;;;;;;10.20;99.90;;;;;;4899734;29;19978;-72
2023/05/05 04:06:22;;;;;;;;;;;10.30;99.90;;;;;;4899034;29;19985;-73
2023/05/05 04:08:47;;;;;;;;;;;10.30;99.90;;;;;;4899464;29;19932;-72
2023/05/05 04:11:13;;;;;;;;;;;10.50;99.90;;;;;;4898796;29;19975;-74
2023/05/05 04:13:38;;;;;;;;;;;10.40;99.90;;;;;;4898785;29;19935;-74
2023/05/05 04:16:04;;;;;;;;;;;10.40;99.90;;;;;;4899955;29;19935;-72
2023/05/05 04:18:30;;;;;;;;;;;10.40;99.90;;;;;;4898991;29;20398;-74
2023/05/05 04:20:55;;;;;;;;;;;10.50;99.90;;;;;;4899461;29;19923;-76
2023/05/05 04:23:21;;;;;;;;;;;10.50;99.90;;;;;;4898627;29;19928;-74
2023/05/05 04:25:46;;;;;;;;;;;10.60;99.90;;;;;;4899186;29;19983;-74
2023/05/05 04:28:12;;;;;;;;;;;10.60;99.90;;;;;;4898492;29;20368;-75
2023/05/05 04:30:38;;;;;;;;;;;10.60;99.90;;;;;;4899409;29;19938;-69
2023/05/05 04:33:03;;;;;;;;;;;10.60;99.90;;;;;;4899143;29;20366;-73
2023/05/05 04:35:29;;;;;;;;;;;10.60;99.90;;;;;;4899573;29;19934;-74
2023/05/05 04:37:55;;;;;;;;;;;10.60;99.90;;;;;;4898464;29;19983;-75
2023/05/05 04:40:20;;;;;;;;;;;10.60;99.90;;;;;;4897872;29;20281;-76
2023/05/05 04:42:46;;;;;;;;;;;10.60;99.90;;;;;;4899297;29;19942;-76
2023/05/05 04:45:12;;;;;;;;;;;10.60;99.90;;;;;;4867482;29;20326;-74
2023/05/05 04:47:38;;;;;;;;;;;10.50;99.90;;;;;;4898134;29;19931;-74
2023/05/05 04:50:04;;;;;;;;;;;10.50;99.90;;;;;;4882489;29;19931;-75
2023/05/05 04:52:30;;;;;;;;;;;10.40;99.90;;;;;;4898983;29;20018;-75
2023/05/05 04:54:56;;;;;;;;;;;10.40;99.90;;;;;;4914856;29;19927;-75
2023/05/05 04:57:21;;;;;;;;;;;10.30;99.90;;;;;;4895678;29;19927;-75
2023/05/05 04:59:47;;;;;;;;;;;10.30;99.90;;;;;;4897737;29;19928;-76
2023/05/05 05:02:12;;;;;;;;;;;10.30;99.90;;;;;;4900176;29;19928;-74
2023/05/05 05:04:38;;;;;;;;;;;10.20;99.90;;;;;;4918338;29;19966;-75
2023/05/05 05:07:04;;;;;;;;;;;10.10;99.90;;;;;;4902308;29;19928;-76
2023/05/05 05:09:29;;;;;;;;;;;10.10;99.90;;;;;;4900928;29;19931;-75
2023/05/05 05:11:59;;;;;;;;;;;10.00;99.90;;;;;;4868515;29;20002;-75
2023/05/05 05:14:26;;;;;;;;;;;10.00;99.90;;;;;;4898691;29;20285;-75
2023/05/05 05:16:52;;;;;;;;;;;9.90;99.90;;;;;;4897618;29;19993;-74
2023/05/05 05:19:18;;;;;;;;;;;9.80;99.90;;;;;;4897601;29;20410;-74
2023/05/05 05:21:43;;;;;;;;;;;9.70;99.90;;;;;;4897354;29;19928;-69
2023/05/05 05:24:10;;;;;;;;;;;9.70;99.90;;;;;;4881626;29;19967;-77
2023/05/05 05:26:36;;;;;;;;;;;9.70;99.90;;;;;;4897894;29;20354;-73
2023/05/05 05:29:01;;;;;;;;;;;9.60;99.90;;;;;;4898118;29;20007;-74
2023/05/05 05:31:27;;;;;;;;;;;9.50;99.90;;;;;;4898044;29;20296;-75
2023/05/05 05:33:53;;;;;;;;;;;9.50;99.90;;;;;;4896296;29;20370;-74
2023/05/05 05:36:18;;;;;;;;;;;9.50;99.90;;;;;;4897929;29;19943;-74
2023/05/05 05:38:44;;;;;;;;;;;9.50;99.90;;;;;;4897930;29;20044;-74
2023/05/05 05:41:10;;;;;;;;;;;9.50;99.90;;;;;;4896471;29;19927;-75
2023/05/05 05:43:35;;;;;;;;;;;9.50;99.90;;;;;;4897423;29;19995;-74
2023/05/05 05:46:01;;;;;;;;;;;9.60;99.90;;;;;;4897806;29;19932;-74
2023/05/05 05:48:28;;;;;;;;;;;9.60;99.90;;;;;;4898216;29;20022;-73
2023/05/05 05:50:54;;;;;;;;;;;9.70;99.90;;;;;;4897799;29;19928;-74
2023/05/05 05:53:20;;;;;;;;;;;9.90;99.90;;;;;;4896574;29;20294;-73
2023/05/05 05:55:46;;;;;;;;;;;10.50;99.90;;;;;;4897959;29;19935;-73
2023/05/05 05:58:11;;;;;;;;;;;11.20;99.90;;;;;;4897597;29;19927;-74
2023/05/05 06:00:37;;;;;;;;;;;12.00;99.90;;;;;;4896759;29;19938;-74
2023/05/05 06:03:02;;;;;;;;;;;12.70;99.90;;;;;;4911899;29;20290;-73
2023/05/05 06:05:28;;;;;;;;;;;13.20;99.90;;;;;;4897703;29;19983;-73
2023/05/05 06:07:54;;;;;;;;;;;13.60;99.90;;;;;;4896101;29;19928;-71
2023/05/05 06:10:19;;;;;;;;;;;13.50;99.90;;;;;;4897794;29;20087;-74
2023/05/05 06:12:45;;;;;;;;;;;13.30;99.90;;;;;;4897622;29;19927;-72
2023/05/05 06:15:10;;;;;;;;;;;13.10;99.90;;;;;;4895725;29;20266;-71
2023/05/05 06:17:36;;;;;;;;;;;12.90;99.90;;;;;;4900718;29;19927;-71
2023/05/05 06:20:02;;;;;;;;;;;12.60;99.90;;;;;;4903986;29;19928;-73
2023/05/05 06:22:27;;;;;;;;;;;12.20;99.90;;;;;;4898735;29;19938;-71
2023/05/05 06:24:53;;;;;;;;;;;11.90;99.90;;;;;;4881111;29;19931;-74
2023/05/05 06:27:19;;;;;;;;;;;11.80;99.90;;;;;;4897303;29;20022;-72
2023/05/05 06:29:44;;;;;;;;;;;11.90;99.90;;;;;;4896803;29;19935;-74
2023/05/05 06:32:11;;;;;;;;;;;11.90;99.90;;;;;;4880479;29;19934;-69
2023/05/05 06:34:37;;;;;;;;;;;12.10;99.90;;;;;;4896301;29;20385;-74
2023/05/05 06:37:02;;;;;;;;;;;12.30;99.90;;;;;;4897358;29;19934;-70
2023/05/05 06:39:28;;;;;;;;;;;12.50;99.90;;;;;;4897402;29;19927;-70
2023/05/05 06:41:53;;;;;;;;;;;12.40;99.90;;;;;;4897540;29;19927;-70
2023/05/05 06:44:19;;;;;;;;;;;12.40;99.90;;;;;;4897105;29;19991;-70
2023/05/05 06:46:45;;;;;;;;;;;12.30;99.90;;;;;;4897274;29;20026;-71
2023/05/05 06:49:11;;;;;;;;;;;12.30;99.90;;;;;;4895942;29;19934;-72
2023/05/05 06:51:36;;;;;;;;;;;12.30;99.90;;;;;;4911841;29;20301;-72
2023/05/05 06:54:02;;;;;;;;;;;12.20;99.90;;;;;;4897151;29;19953;-72
2023/05/05 06:56:29;;;;;;;;;;;12.20;99.90;;;;;;4900884;29;19942;-71
2023/05/05 06:58:55;;;;;;;;;;;12.20;99.90;;;;;;4915524;29;19955;-70
2023/05/05 07:01:20;;;;;;;;;;;12.20;99.90;;;;;;4900587;29;19927;-69
2023/05/05 07:03:46;;;;;;;;;;;12.40;99.90;;;;;;4900997;29;20301;-70
2023/05/05 07:06:12;;;;;;;;;;;12.60;99.90;;;;;;4900528;29;19927;-69
2023/05/05 07:08:37;;;;;;;;;;;13.40;99.90;;;;;;4900746;29;19938;-71
2023/05/05 07:11:06;;;;;;;;;;;14.00;99.90;;;;;;4900365;29;19927;-74
2023/05/05 07:13:31;;;;;;;;;;;14.40;99.90;;;;;;4900661;29;20330;-72
2023/05/05 07:15:57;;;;;;;;;;;14.80;99.90;;;;;;4900959;29;19936;-70
2023/05/05 07:18:23;;;;;;;;;;;15.30;99.90;;;;;;4899331;29;20215;-71
2023/05/05 07:20:48;;;;;;;;;;;15.60;99.90;;;;;;4914700;29;20313;-72
2023/05/05 07:23:14;;;;;;;;;;;15.80;99.90;;;;;;4899457;29;19931;-71
2023/05/05 07:25:40;;;;;;;;;;;;;;;;;;4915138;29;20121;-70
2023/05/05 07:28:05;;;;;;;;;;;16.00;99.90;;;;;;4899299;29;19927;-68
2023/05/05 07:30:31;;;;;;;;;;;17.60;99.90;;;;;;4884112;29;19938;-71
2023/05/05 07:32:57;;;;;;;;;;;18.00;99.90;;;;;;4900375;29;19932;-70
2023/05/05 07:35:22;;;;;;;;;;;18.50;99.90;;;;;;4898745;29;19928;-71
2023/05/05 07:37:48;;;;;;;;;;;18.90;99.90;;;;;;4901863;29;19934;-71
2023/05/05 07:40:14;;;;;;;;;;;19.50;99.90;;;;;;4901569;29;19934;-70
2023/05/05 07:42:39;;;;;;;;;;;19.90;99.90;;;;;;4903398;29;19935;-70
2023/05/05 07:45:07;;;;;;;;;;;;;;;;;;4899953;29;20390;-66
2023/05/05 07:47:33;;;;;;;;;;;20.30;99.90;;;;;;4900770;29;19931;-71
2023/05/05 07:49:59;;;;;;;;;;;21.40;99.90;;;;;;4899479;29;19928;-69
2023/05/05 07:52:25;;;;;;;;;;;21.60;99.90;;;;;;4898697;29;19938;-71
2023/05/05 07:54:51;;;;;;;;;;;21.80;99.90;;;;;;4914488;29;19992;-71
2023/05/05 07:57:17;;;;;;;;;;;21.90;99.90;;;;;;4898304;29;19928;-68
2023/05/05 07:59:42;;;;;;;;;;;21.90;99.30;;;;;;4899615;29;19974;-70
2023/05/05 08:02:08;;;;;;;;;;;22.20;99.90;;;;;;4899637;29;19932;-69
2023/05/05 08:04:34;;;;;;;;;;;22.50;97.90;;;;;;4898319;29;19939;-70
2023/05/05 08:07:00;;;;;;;;;;;22.50;98.00;;;;;;4899031;29;19927;-70
2023/05/05 08:09:25;;;;;;;;;;;22.80;99.50;;;;;;4899329;29;20018;-69
2023/05/05 08:11:51;;;;;;;;;;;23.20;98.40;;;;;;4899418;29;19927;-69
2023/05/05 08:14:16;;;;;;;;;;;23.30;99.60;;;;;;4899116;29;19978;-69
2023/05/05 08:16:42;;;;;;;;;;;23.50;97.40;;;;;;4899087;29;19928;-69
2023/05/05 08:19:07;;;;;;;;;;;23.70;98.20;;;;;;4897887;29;19932;-70
2023/05/05 08:21:33;;;;;;;;;;;23.80;98.10;;;;;;4897865;29;19995;-69
2023/05/05 08:23:58;;;;;;;;;;;23.80;97.50;;;;;;4899348;29;20389;-69
2023/05/05 08:26:24;;;;;;;;;;;23.90;97.00;;;;;;4899025;29;19963;-70
2023/05/05 08:28:53;;;;;;;;;;;23.90;96.30;;;;;;4882606;29;19935;-71
2023/05/05 08:31:19;;;;;;;;;;;23.80;96.50;;;;;;4913280;29;20350;-71
2023/05/05 08:33:45;;;;;;;;;;;23.50;95.90;;;;;;4899307;29;20149;-71
2023/05/05 08:36:12;;;;;;;;;;;23.50;95.60;;;;;;4899201;29;20021;-68
2023/05/05 08:38:38;;;;;;;;;;;23.60;94.80;;;;;;4898973;29;19932;-69
2023/05/05 08:41:06;;;;;;;;;;;23.80;95.90;;;;;;4882047;29;19934;-71
2023/05/05 08:43:33;;;;;;;;;;;23.90;95.50;;;;;;4897506;29;19939;-70
2023/05/05 08:45:59;;;;;;;;;;;23.80;95.30;;;;;;4899099;29;19927;-71
2023/05/05 08:48:27;;;;;;;;;;;24.10;95.60;;;;;;4898652;29;19983;-72
2023/05/05 08:50:57;;;;;;;;;;;24.40;95.40;;;;;;4899293;29;19933;-72
2023/05/05 08:53:32;;;;;;;;;;;24.30;94.70;;;;;;4898829;29;19984;-72
2023/05/05 08:55:58;;;;;;;;;;;24.40;94.90;;;;;;4897711;29;20582;-70
2023/05/05 08:58:23;;;;;;;;;;;24.80;95.20;;;;;;4898827;29;19934;-69
2023/05/05 09:00:50;;;;;;;;;;;25.00;94.70;;;;;;4899317;29;19927;-70
2023/05/05 09:03:16;;;;;;;;;;;25.20;94.70;;;;;;4905913;29;20057;-71
2023/05/05 09:05:42;;;;;;;;;;;25.50;94.40;;;;;;4901763;29;20031;-71
2023/05/05 09:08:09;;;;;;;;;;;25.60;93.90;;;;;;4897727;29;19938;-72
2023/05/05 09:10:35;;;;;;;;;;;25.70;93.40;;;;;;4898417;29;20389;-70
2023/05/05 09:13:04;;;;;;;;;;;25.60;93.40;;;;;;4893570;29;19928;-72
2023/05/05 09:15:31;;;;;;;;;;;25.30;93.90;;;;;;4897137;29;19927;-71
2023/05/05 09:17:58;;;;;;;;;;;25.20;94.00;;;;;;4896959;29;20025;-69
2023/05/05 09:20:28;;;;;;;;;;;25.00;93.90;;;;;;4896359;29;19928;-69
2023/05/05 09:22:54;;;;;;;;;;;25.20;93.80;;;;;;4897935;29;19928;-71
2023/05/05 09:25:20;;;;;;;;;;;25.20;93.30;;;;;;4896277;29;19927;-69
2023/05/05 09:27:47;;;;;;;;;;;25.30;94.30;;;;;;4897724;29;19928;-70
2023/05/05 09:30:25;;;;;;;;;;;25.50;94.10;;;;;;4896309;29;19927;-70
2023/05/05 09:32:54;;;;;;;;;;;25.60;93.80;;;;;;4898058;29;19928;-69
2023/05/05 09:35:20;;;;;;;;;;;25.40;93.30;;;;;;4894551;29;20013;-70
2023/05/05 09:37:46;;;;;;;;;;;25.20;93.90;;;;;;4896461;29;19931;-71
2023/05/05 09:40:12;;;;;;;;;;;25.40;93.50;;;;;;4895383;29;19927;-70
2023/05/05 09:42:38;;;;;;;;;;;25.10;93.60;;;;;;4894771;29;20022;-69
2023/05/05 09:45:25;;;;;;;;;;;24.70;93.80;;;;;;4897415;29;20385;-69
2023/05/05 09:47:51;;;;;;;;;;;24.20;93.90;;;;;;4897752;29;19928;-71
2023/05/05 09:50:19;;;;;;;;;;;23.90;94.30;;;;;;4897826;29;19999;-71
2023/05/05 09:52:58;;;;;;;;;;;23.80;94.60;;;;;;4895856;29;19931;-70
2023/05/05 09:55:24;;;;;;;;;;;23.70;94.70;;;;;;4897696;29;19927;-69
2023/05/05 09:57:50;;;;;;;;;;;23.50;94.90;;;;;;4897475;29;19927;-70
2023/05/05 10:00:16;;;;;;;;;;;23.30;95.30;;;;;;4897882;29;20021;-70
2023/05/05 10:02:41;;;;;;;;;;;22.80;95.70;;;;;;4896153;29;19975;-71
2023/05/05 10:05:11;;;;;;;;;;;22.50;95.90;;;;;;4897644;29;19987;-73
2023/05/05 10:07:37;;;;;;;;;;;22.10;96.70;;;;;;4894785;29;19983;-70
2023/05/05 10:10:04;;;;;;;;;;;22.00;96.50;;;;;;4896123;29;20002;-67
2023/05/05 10:12:30;;;;;;;;;;;21.80;97.30;;;;;;4894078;29;19928;-69
2023/05/05 10:14:56;;;;;;;;;;;21.80;97.60;;;;;;4897004;29;20070;-71
2023/05/05 10:17:22;;;;;;;;;;;21.80;97.70;;;;;;4896355;29;20330;-73
2023/05/05 10:19:52;;;;;;;;;;;22.00;97.60;;;;;;4895950;29;19932;-70
2023/05/05 10:22:21;;;;;;;;;;;22.20;97.40;;;;;;4896308;29;19954;-69
2023/05/05 10:24:52;;;;;;;;;;;22.30;97.50;;;;;;4898134;29;19934;-70
2023/05/05 10:27:22;;;;;;;;;;;22.30;97.90;;;;;;4883181;29;19932;-71
2023/05/05 10:30:03;;;;;;;;;;;22.50;98.10;;;;;;4898328;29;20558;-69
2023/05/05 10:32:38;;;;;;;;;;;22.60;98.20;;;;;;4897727;29;19928;-67
2023/05/05 10:35:06;;;;;;;;;;;22.70;97.80;;;;;;4897250;29;19928;-70
2023/05/05 10:37:32;;;;;;;;;;;22.70;98.20;;;;;;4897746;29;20018;-66
2023/05/05 10:39:58;;;;;;;;;;;22.70;97.90;;;;;;4897171;29;20251;-68
2023/05/05 10:42:23;;;;;;;;;;;22.60;97.90;;;;;;4897150;29;19934;-68
2023/05/05 10:44:50;;;;;;;;;;;22.60;98.10;;;;;;4896901;29;19967;-71
2023/05/05 10:47:16;;;;;;;;;;;22.60;98.60;;;;;;4897248;29;20361;-69
2023/05/05 10:50:01;;;;;;;;;;;22.80;98.70;;;;;;4895781;29;19935;-68
2023/05/05 10:52:46;;;;;;;;;;;23.00;98.60;;;;;;4911674;29;20385;-69
2023/05/05 10:55:11;;;;;;;;;;;23.20;98.50;;;;;;4897207;29;19975;-70
2023/05/05 10:57:42;;;;;;;;;;;23.30;98.70;;;;;;4896790;29;20029;-69
2023/05/05 11:00:08;;;;;;;;;;;23.30;98.50;;;;;;4910942;29;20011;-69
2023/05/05 11:02:34;;;;;;;;;;;23.30;98.50;;;;;;4895468;29;20416;-68
2023/05/05 11:05:13;;;;;;;;;;;23.20;98.70;;;;;;4896918;29;19927;-69
2023/05/05 11:07:38;;;;;;;;;;;23.00;98.90;;;;;;4880848;29;20366;-71
2023/05/05 11:10:05;;;;;;;;;;;23.00;98.90;;;;;;4896849;29;19927;-69
2023/05/05 11:12:31;;;;;;;;;;;22.90;99.30;;;;;;4897191;29;20301;-70
2023/05/05 11:15:15;;;;;;;;;;;22.90;99.60;;;;;;4896876;29;19935;-69
2023/05/05 11:17:47;;;;;;;;;;;23.00;99.90;;;;;;4896229;29;20026;-70
2023/05/05 11:20:13;;;;;;;;;;;23.00;99.30;;;;;;4910057;29;20423;-71
2023/05/05 11:22:57;;;;;;;;;;;22.90;99.60;;;;;;4895028;29;19996;-70
2023/05/05 11:25:39;;;;;;;;;;;22.80;99.90;;;;;;4896907;29;19927;-70
2023/05/05 11:28:05;;;;;;;;;;;22.90;99.90;;;;;;4897104;29;19934;-69
2023/05/05 11:30:31;;;;;;;;;;;23.10;99.90;;;;;;4895586;29;20008;-69
2023/05/05 11:33:15;;;;;;;;;;;23.20;99.90;;;;;;4896549;29;20397;-69
2023/05/05 11:35:53;;;;;;;;;;;23.30;99.70;;;;;;4895553;29;19974;-69
2023/05/05 11:38:21;;;;;;;;;;;23.40;99.50;;;;;;4896650;29;19974;-68
2023/05/05 11:40:46;;;;;;;;;;;23.40;99.70;;;;;;4910623;29;19927;-68
2023/05/05 11:43:17;;;;;;;;;;;23.20;99.80;;;;;;4899592;29;20405;-68
2023/05/05 11:45:43;;;;;;;;;;;23.10;99.90;;;;;;4898234;29;20362;-71
2023/05/05 11:48:25;;;;;;;;;;;23.00;99.70;;;;;;4899269;29;20017;-71
2023/05/05 11:50:52;;;;;;;;;;;23.00;99.80;;;;;;4899834;29;20301;-69
2023/05/05 11:53:18;;;;;;;;;;;23.00;99.80;;;;;;4899170;29;19938;-69
2023/05/05 11:55:43;;;;;;;;;;;23.00;99.90;;;;;;4900109;29;19927;-69
2023/05/05 11:58:18;;;;;;;;;;;23.00;99.30;;;;;;4883335;29;20025;-68
2023/05/05 12:00:44;;;;;;;;;;;23.00;99.30;;;;;;4899359;29;19927;-69
2023/05/05 12:03:10;;;;;;;;;;;23.00;99.20;;;;;;4899683;29;19935;-69
2023/05/05 12:05:35;;;;;;;;;;;23.00;99.20;;;;;;4899682;29;19931;-70
2023/05/05 12:08:01;;;;;;;;;;;23.00;99.50;;;;;;4899383;29;20018;-70
2023/05/05 12:10:27;;;;;;;;;;;23.10;99.70;;;;;;4899390;29;19927;-69
2023/05/05 12:12:52;;;;;;;;;;;23.10;98.70;;;;;;4899029;29;19928;-69
2023/05/05 12:15:26;;;;;;;;;;;23.20;98.80;;;;;;4899485;29;19942;-70
2023/05/05 12:17:52;;;;;;;;;;;23.20;98.70;;;;;;4914023;29;19998;-71
2023/05/05 12:20:27;;;;;;;;;;;23.20;98.90;;;;;;4899224;29;19931;-70
2023/05/05 12:22:58;;;;;;;;;;;23.20;98.90;;;;;;4898350;29;19931;-70
2023/05/05 12:25:23;;;;;;;;;;;23.30;99.10;;;;;;4899414;29;19950;-70
2023/05/05 12:27:52;;;;;;;;;;;23.30;99.00;;;;;;4898953;29;19927;-70
2023/05/05 12:30:18;;;;;;;;;;;23.20;99.20;;;;;;4913551;29;19931;-70
2023/05/05 12:32:44;;;;;;;;;;;23.30;99.50;;;;;;4897962;29;20330;-69
2023/05/05 12:35:10;;;;;;;;;;;23.30;99.20;;;;;;4898806;29;19979;-71
2023/05/05 12:37:35;;;;;;;;;;;23.20;99.40;;;;;;4899176;29;19927;-69
2023/05/05 12:40:02;;;;;;;;;;;23.00;99.60;;;;;;4897990;29;19975;-69
2023/05/05 12:42:28;;;;;;;;;;;23.00;99.80;;;;;;4898658;29;20026;-70
2023/05/05 12:44:53;;;;;;;;;;;22.70;99.90;;;;;;4897632;29;19939;-70
2023/05/05 12:47:32;;;;;;;;;;;22.60;99.90;;;;;;4882301;29;19927;-70
2023/05/05 12:49:59;;;;;;;;;;;22.60;99.90;;;;;;4898028;29;19939;-70
2023/05/05 12:52:39;;;;;;;;;;;22.50;99.90;;;;;;4898360;29;19928;-69
2023/05/05 12:55:04;;;;;;;;;;;22.40;99.90;;;;;;4898491;29;19928;-69
2023/05/05 12:57:30;;;;;;;;;;;22.30;99.90;;;;;;4898779;29;19934;-70
2023/05/05 12:59:56;;;;;;;;;;;22.20;99.90;;;;;;4897947;29;19928;-70
2023/05/05 13:02:32;;;;;;;;;;;22.10;99.90;;;;;;4897546;29;19932;-70
2023/05/05 13:04:59;;;;;;;;;;;22.00;99.90;;;;;;4898244;29;20014;-70
2023/05/05 13:07:24;;;;;;;;;;;21.90;99.90;;;;;;4913229;29;19928;-70
2023/05/05 13:09:50;;;;;;;;;;;21.90;99.90;;;;;;4898075;29;19927;-69
2023/05/05 13:12:17;;;;;;;;;;;21.90;99.90;;;;;;4900191;29;19927;-71
2023/05/05 13:14:43;;;;;;;;;;;21.80;99.90;;;;;;4903216;29;19928;-71
2023/05/05 13:17:09;;;;;;;;;;;21.70;99.90;;;;;;4899886;29;20118;-70
2023/05/05 13:19:40;;;;;;;;;;;21.60;99.90;;;;;;4897251;29;19927;-69
2023/05/05 13:22:06;;;;;;;;;;;21.40;99.90;;;;;;4897826;29;19938;-69
2023/05/05 13:24:31;;;;;;;;;;;21.20;99.90;;;;;;4897740;29;20381;-70
2023/05/05 13:26:57;;;;;;;;;;;21.00;99.90;;;;;;4898695;29;19978;-69
2023/05/05 13:29:23;;;;;;;;;;;20.80;99.90;;;;;;4899277;29;19931;-71
2023/05/05 13:31:49;;;;;;;;;;;20.70;99.90;;;;;;4898751;29;19927;-69
2023/05/05 13:34:15;;;;;;;;;;;20.50;99.90;;;;;;4898831;29;20040;-70
2023/05/05 13:36:40;;;;;;;;;;;20.30;99.90;;;;;;4882067;29;19931;-70
2023/05/05 13:39:06;;;;;;;;;;;20.10;99.90;;;;;;4897859;29;19934;-69
2023/05/05 13:41:31;;;;;;;;;;;20.00;99.90;;;;;;4898304;29;20261;-70
2023/05/05 13:43:57;;;;;;;;;;;19.90;99.90;;;;;;4896863;29;19939;-69
2023/05/05 13:46:22;;;;;;;;;;;19.70;99.90;;;;;;4898303;29;19951;-70
2023/05/05 13:48:48;;;;;;;;;;;19.50;99.90;;;;;;4897890;29;19935;-69
2023/05/05 13:51:15;;;;;;;;;;;19.30;99.90;;;;;;4897730;29;19996;-70
2023/05/05 13:53:42;;;;;;;;;;;19.20;99.90;;;;;;4896209;29;20020;-69
2023/05/05 13:56:08;;;;;;;;;;;19.10;99.90;;;;;;4896349;29;19938;-69
2023/05/05 13:58:34;;;;;;;;;;;19.00;99.90;;;;;;4897062;29;20026;-70
2023/05/05 14:01:00;;;;;;;;;;;18.80;99.90;;;;;;4896652;29;19935;-72
2023/05/05 14:03:25;;;;;;;;;;;18.70;99.90;;;;;;4897590;29;19927;-71
2023/05/05 14:05:51;;;;;;;;;;;18.70;99.90;;;;;;4911663;29;19931;-72
2023/05/05 14:08:19;;;;;;;;;;;18.50;99.90;;;;;;4896575;29;19923;-71
2023/05/05 14:10:45;;;;;;;;;;;18.50;99.90;;;;;;4897336;29;19928;-72
2023/05/05 14:13:11;;;;;;;;;;;18.40;99.90;;;;;;4911657;29;19931;-71
2023/05/05 14:15:36;;;;;;;;;;;18.40;99.90;;;;;;4881062;29;19935;-71
2023/05/05 14:18:02;;;;;;;;;;;18.40;99.90;;;;;;4896457;29;19927;-71